Time;durP1;ratioP1;P1;durP2;ratioP2;P2;SDS_P1;SDS_P2;PMS_P1;PMS_P2;Temp;Humidity;BMP_temperature;BMP_pressure;BME280_temperature;BME280_humidity;BME280_pressure;Samples;Min_cycle;Max_cycle;Signal;HPM_P1;HPM_P2
2022/08/08 00:00:10;;;;;;;0.90;0.85;;;;;;;;;;4930950;29;20499;-73
2022/08/08 00:02:59;;;;;;;1.73;0.80;;;;;;;;;;4952483;28;20384;-73
2022/08/08 00:05:54;;;;;;;1.48;0.80;;;;;;;;;;4947425;28;20122;-72
2022/08/08 00:08:51;;;;;;;1.00;0.60;;;;;;;;;;4952881;28;20043;-74
2022/08/08 00:11:26;;;;;;;0.73;0.47;;;;;;;;;;4936566;28;20063;-74
2022/08/08 00:14:00;;;;;;;2.08;0.60;;;;;;;;;;4947386;28;20157;-75
2022/08/08 00:16:34;;;;;;;2.25;0.70;;;;;;;;;;4951806;28;20043;-75
2022/08/08 00:19:07;;;;;;;1.13;0.57;;;;;;;;;;4945212;28;20490;-75
2022/08/08 00:21:35;;;;;;;;;;;;;;;;;;4933554;28;20047;-71
2022/08/08 00:24:08;;;;;;;1.15;0.52;;;;;;;;;;4952617;28;20328;-73
2022/08/08 00:26:48;;;;;;;2.70;1.02;;;;;;;;;;4931389;28;20246;-74
2022/08/08 00:29:26;;;;;;;1.20;0.60;;;;;;;;;;4930176;29;20460;-74
2022/08/08 00:31:56;;;;;;;3.33;0.50;;;;;;;;;;4947064;28;20098;-74
2022/08/08 00:37:44;;;;;;;0.43;0.40;;;;;;;;;;4931596;28;20062;-78
2022/08/08 00:40:38;;;;;;;0.75;0.60;;;;;;;;;;4937410;28;20047;-74
2022/08/08 00:43:16;;;;;;;0.40;0.40;;;;;;;;;;4937386;28;20050;-73
2022/08/08 00:45:44;;;;;;;0.85;0.30;;;;;;;;;;4933862;28;20609;-73
2022/08/08 00:48:34;;;;;;;1.75;0.40;;;;;;;;;;4949921;28;20023;-74
2022/08/08 00:51:08;;;;;;;0.82;0.40;;;;;;;;;;4952960;28;20047;-72
2022/08/08 00:53:59;;;;;;;0.50;0.30;;;;;;;;;;4949820;28;20047;-74
2022/08/08 00:56:59;;;;;;;0.60;0.40;;;;;;;;;;4930864;28;20044;-72
2022/08/08 01:00:04;;;;;;;1.52;0.38;;;;;;;;;;4949957;28;20381;-73
2022/08/08 01:03:04;;;;;;;0.70;0.50;;;;;;;;;;4949007;28;20071;-72
2022/08/08 01:05:41;;;;;;;0.50;0.32;;;;;;;;;;4945721;28;20107;-72
2022/08/08 01:08:48;;;;;;;0.30;0.30;;;;;;;;;;4947421;28;20044;-74
2022/08/08 01:11:36;;;;;;;2.25;0.57;;;;;;;;;;4933297;28;20139;-74
2022/08/08 01:14:39;;;;;;;1.50;0.30;;;;;;;;;;4928561;28;20066;-74
2022/08/08 01:17:16;;;;;;;0.63;0.35;;;;;;;;;;4927645;28;20039;-74
2022/08/08 01:20:00;;;;;;;0.50;0.50;;;;;;;;;;4935091;28;20620;-73
2022/08/08 01:23:03;;;;;;;3.10;0.60;;;;;;;;;;4946561;28;20070;-74
2022/08/08 01:25:31;;;;;;;1.65;0.50;;;;;;;;;;4947171;28;20138;-73
2022/08/08 01:28:17;;;;;;;1.33;0.50;;;;;;;;;;4946734;28;20027;-73
2022/08/08 01:31:10;;;;;;;1.45;0.30;;;;;;;;;;4947177;28;20490;-74
2022/08/08 01:34:03;;;;;;;0.63;0.47;;;;;;;;;;4947116;28;20096;-75
2022/08/08 01:36:54;;;;;;;1.50;0.40;;;;;;;;;;4947015;28;20059;-73
2022/08/08 01:39:44;;;;;;;1.42;0.60;;;;;;;;;;4926690;28;20040;-73
2022/08/08 01:42:20;;;;;;;2.28;0.52;;;;;;;;;;4925913;28;20135;-73
2022/08/08 01:45:07;;;;;;;1.85;0.30;;;;;;;;;;4925939;28;20054;-73
2022/08/08 01:48:01;;;;;;;1.20;0.43;;;;;;;;;;4928605;28;20377;-72
2022/08/08 01:51:00;;;;;;;0.50;0.28;;;;;;;;;;4923965;29;20094;-72
2022/08/08 01:53:35;;;;;;;1.23;0.45;;;;;;;;;;4923400;28;20589;-74
2022/08/08 01:56:10;;;;;;;0.75;0.50;;;;;;;;;;4933944;28;20518;-73
2022/08/08 01:59:12;;;;;;;1.50;0.50;;;;;;;;;;4944402;28;20039;-74
2022/08/08 02:02:10;;;;;;;1.48;0.60;;;;;;;;;;4907612;28;20047;-74
2022/08/08 02:05:17;;;;;;;1.83;0.55;;;;;;;;;;4941055;28;20043;-77
2022/08/08 02:07:55;;;;;;;2.05;0.40;;;;;;;;;;4928805;28;20041;-73
2022/08/08 02:10:42;;;;;;;1.02;0.50;;;;;;;;;;4943347;28;20459;-74
2022/08/08 02:13:13;;;;;;;1.55;0.40;;;;;;;;;;4926502;28;20031;-74
2022/08/08 02:16:23;;;;;;;2.38;0.65;;;;;;;;;;4925386;29;20035;-73
2022/08/08 02:18:59;;;;;;;0.50;0.45;;;;;;;;;;4927129;29;20039;-72
2022/08/08 02:24:30;;;;;;;;;;;;;;;;;;4942972;28;20101;-71
2022/08/08 02:27:16;;;;;;;1.65;0.35;;;;;;;;;;4947123;28;19965;-73
2022/08/08 02:29:56;;;;;;;1.13;0.60;;;;;;;;;;4943336;28;20032;-74
2022/08/08 02:32:36;;;;;;;0.40;0.40;;;;;;;;;;4934472;28;20044;-74
2022/08/08 02:35:02;;;;;;;1.88;0.60;;;;;;;;;;4932851;28;20413;-72
2022/08/08 02:38:10;;;;;;;4.40;0.65;;;;;;;;;;4944053;28;20050;-73
2022/08/08 02:41:06;;;;;;;0.73;0.35;;;;;;;;;;4945378;28;20131;-73
2022/08/08 02:44:02;;;;;;;0.43;0.30;;;;;;;;;;4945565;28;20734;-76
2022/08/08 02:46:51;;;;;;;3.22;1.48;;;;;;;;;;4945657;28;20046;-73
2022/08/08 02:49:43;;;;;;;1.58;0.52;;;;;;;;;;4942563;28;20046;-72
2022/08/08 02:52:48;;;;;;;2.83;0.50;;;;;;;;;;4924567;28;20435;-74
2022/08/08 02:55:42;;;;;;;3.83;0.60;;;;;;;;;;4945311;28;20068;-74
2022/08/08 02:58:29;;;;;;;1.52;0.50;;;;;;;;;;4945106;28;20365;-73
2022/08/08 03:01:27;;;;;;;1.40;0.40;;;;;;;;;;4927268;29;20028;-73
2022/08/08 03:04:01;;;;;;;1.38;0.40;;;;;;;;;;4903017;29;20264;-73
2022/08/08 03:06:41;;;;;;;0.65;0.30;;;;;;;;;;4923551;29;20028;-72
2022/08/08 03:09:35;;;;;;;0.73;0.30;;;;;;;;;;4924345;28;20489;-73
2022/08/08 03:12:39;;;;;;;0.70;0.50;;;;;;;;;;4926270;28;20043;-72
2022/08/08 03:15:13;;;;;;;1.33;0.40;;;;;;;;;;4919131;28;20424;-73
2022/08/08 03:17:46;;;;;;;0.47;0.40;;;;;;;;;;4924128;28;20099;-73
2022/08/08 03:20:14;;;;;;;5.43;0.57;;;;;;;;;;4933891;28;20051;-73
2022/08/08 03:22:45;;;;;;;0.50;0.30;;;;;;;;;;4939472;28;20043;-73
2022/08/08 03:25:13;;;;;;;1.98;0.35;;;;;;;;;;4923100;28;20027;-73
2022/08/08 03:27:44;;;;;;;0.32;0.32;;;;;;;;;;4946693;28;20149;-73
2022/08/08 03:30:13;;;;;;;1.90;0.47;;;;;;;;;;4944495;28;20412;-73
2022/08/08 03:35:24;;;;;;;0.93;0.60;;;;;;;;;;4931868;28;20519;-73
2022/08/08 03:37:49;;;;;;;0.73;0.30;;;;;;;;;;4933130;28;20045;-73
2022/08/08 03:40:16;;;;;;;1.05;0.43;;;;;;;;;;4940340;28;20039;-73
2022/08/08 03:42:43;;;;;;;0.45;0.35;;;;;;;;;;4929546;29;20038;-74
2022/08/08 03:45:20;;;;;;;1.27;0.40;;;;;;;;;;4927401;28;20583;-74
2022/08/08 03:48:07;;;;;;;0.88;0.43;;;;;;;;;;4931523;28;20538;-73
2022/08/08 03:50:34;;;;;;;2.47;0.70;;;;;;;;;;4935454;28;20046;-73
2022/08/08 03:53:10;;;;;;;1.50;0.47;;;;;;;;;;4949941;28;20035;-73
2022/08/08 03:55:41;;;;;;;1.55;0.35;;;;;;;;;;4946205;28;20042;-73
2022/08/08 03:58:07;;;;;;;3.65;0.90;;;;;;;;;;4945712;28;20043;-74
2022/08/08 04:00:33;;;;;;;2.17;0.50;;;;;;;;;;4925622;29;20036;-74
2022/08/08 04:03:06;;;;;;;2.50;0.55;;;;;;;;;;4924050;29;20036;-74
2022/08/08 04:05:35;;;;;;;0.50;0.50;;;;;;;;;;4926107;28;20035;-73
2022/08/08 04:08:04;;;;;;;3.15;0.38;;;;;;;;;;4928546;28;20032;-73
2022/08/08 04:10:32;;;;;;;1.20;0.50;;;;;;;;;;4929939;28;20091;-73
2022/08/08 04:13:00;;;;;;;0.98;0.38;;;;;;;;;;4947755;28;20042;-73
2022/08/08 04:15:25;;;;;;;7.78;0.63;;;;;;;;;;4924830;29;20043;-74
2022/08/08 04:17:51;;;;;;;2.78;0.57;;;;;;;;;;4942284;28;20039;-74
2022/08/08 04:20:16;;;;;;;1.42;0.63;;;;;;;;;;4948796;28;20051;-71
2022/08/08 04:22:42;;;;;;;0.95;0.40;;;;;;;;;;4943942;28;20054;-72
2022/08/08 04:25:08;;;;;;;1.15;0.35;;;;;;;;;;4944625;28;20039;-74
2022/08/08 04:27:35;;;;;;;1.02;0.50;;;;;;;;;;4942626;28;20019;-74
2022/08/08 04:30:05;;;;;;;0.68;0.40;;;;;;;;;;4946401;28;20047;-72
2022/08/08 04:32:31;;;;;;;3.28;0.50;;;;;;;;;;4930606;28;20043;-73
2022/08/08 04:34:57;;;;;;;3.20;0.47;;;;;;;;;;4935679;28;20506;-73
2022/08/08 04:37:23;;;;;;;0.75;0.55;;;;;;;;;;4949645;28;20043;-73
2022/08/08 04:39:48;;;;;;;1.55;0.60;;;;;;;;;;4946182;28;20031;-74
2022/08/08 04:42:13;;;;;;;0.93;0.50;;;;;;;;;;4947684;28;20495;-72
2022/08/08 04:44:39;;;;;;;1.88;0.50;;;;;;;;;;4948652;28;20047;-73
2022/08/08 04:47:04;;;;;;;0.90;0.50;;;;;;;;;;4945146;28;20120;-73
2022/08/08 04:49:30;;;;;;;1.15;0.50;;;;;;;;;;4942929;28;20381;-76
2022/08/08 04:51:55;;;;;;;4.80;0.70;;;;;;;;;;4948301;28;20046;-73
2022/08/08 04:54:21;;;;;;;2.20;0.68;;;;;;;;;;4946617;28;20051;-73
2022/08/08 04:56:46;;;;;;;1.55;0.60;;;;;;;;;;4944028;28;20043;-77
2022/08/08 04:59:12;;;;;;;3.45;0.70;;;;;;;;;;4936329;28;20421;-74
2022/08/08 05:01:38;;;;;;;1.27;0.50;;;;;;;;;;4924203;28;20884;-73
2022/08/08 05:04:03;;;;;;;5.68;1.08;;;;;;;;;;4928507;28;20035;-73
2022/08/08 05:06:29;;;;;;;3.35;0.80;;;;;;;;;;4931230;28;20492;-74
2022/08/08 05:08:54;;;;;;;1.40;0.70;;;;;;;;;;4944984;28;20257;-74
2022/08/08 05:11:21;;;;;;;1.80;0.90;;;;;;;;;;4934065;28;20086;-73
2022/08/08 05:13:46;;;;;;;3.25;0.73;;;;;;;;;;4928606;28;20497;-73
2022/08/08 05:16:12;;;;;;;0.90;0.80;;;;;;;;;;4928066;28;20034;-73
2022/08/08 05:18:37;;;;;;;2.00;0.93;;;;;;;;;;4946200;28;20027;-74
2022/08/08 05:21:04;;;;;;;3.38;0.88;;;;;;;;;;4945873;28;20074;-73
2022/08/08 05:23:30;;;;;;;1.80;1.10;;;;;;;;;;4945303;28;20031;-73
2022/08/08 05:25:56;;;;;;;3.88;1.00;;;;;;;;;;4943465;28;20058;-74
2022/08/08 05:28:21;;;;;;;1.23;0.90;;;;;;;;;;4948980;28;20065;-72
2022/08/08 05:30:47;;;;;;;2.15;0.65;;;;;;;;;;4947853;28;20023;-72
2022/08/08 05:33:12;;;;;;;3.95;1.10;;;;;;;;;;4946770;28;20683;-72
2022/08/08 05:35:43;;;;;;;2.70;1.10;;;;;;;;;;4942303;28;20396;-74
2022/08/08 05:38:13;;;;;;;0.57;0.55;;;;;;;;;;4948611;28;20043;-74
2022/08/08 05:40:45;;;;;;;2.50;0.73;;;;;;;;;;4943064;28;20047;-73
2022/08/08 05:43:20;;;;;;;1.92;0.63;;;;;;;;;;4945359;28;20039;-73
2022/08/08 05:45:47;;;;;;;1.45;0.73;;;;;;;;;;4943960;28;20035;-72
2022/08/08 05:48:13;;;;;;;1.98;1.20;;;;;;;;;;4944364;28;20054;-73
2022/08/08 05:50:38;;;;;;;2.67;0.80;;;;;;;;;;4928303;28;20051;-73
2022/08/08 05:53:04;;;;;;;2.00;0.50;;;;;;;;;;4925821;28;20404;-72
2022/08/08 05:55:33;;;;;;;1.27;0.60;;;;;;;;;;4929814;28;20059;-72
2022/08/08 05:58:00;;;;;;;2.17;0.68;;;;;;;;;;4945791;28;20027;-72
2022/08/08 06:00:30;;;;;;;1.35;0.50;;;;;;;;;;4925503;29;20035;-72
2022/08/08 06:03:10;;;;;;;1.55;0.55;;;;;;;;;;4925423;29;20357;-73
2022/08/08 06:05:49;;;;;;;1.65;0.68;;;;;;;;;;4935542;28;20169;-73
2022/08/08 06:08:20;;;;;;;2.05;0.60;;;;;;;;;;4933925;28;20044;-73
2022/08/08 06:10:47;;;;;;;0.70;0.50;;;;;;;;;;4923156;28;20132;-73
2022/08/08 06:13:12;;;;;;;0.50;0.50;;;;;;;;;;4930500;28;20023;-72
2022/08/08 06:15:38;;;;;;;1.17;0.65;;;;;;;;;;4926736;28;20035;-72
2022/08/08 06:18:03;;;;;;;0.98;0.50;;;;;;;;;;4942791;28;20046;-72
2022/08/08 06:20:29;;;;;;;3.30;0.60;;;;;;;;;;4940998;28;20106;-72
2022/08/08 06:22:55;;;;;;;2.72;0.60;;;;;;;;;;4941955;28;20043;-72
2022/08/08 06:25:20;;;;;;;2.70;0.50;;;;;;;;;;4939837;28;20405;-71
2022/08/08 06:27:52;;;;;;;3.45;0.80;;;;;;;;;;4925222;29;20046;-72
2022/08/08 06:30:21;;;;;;;4.80;0.60;;;;;;;;;;4922231;28;20055;-72
2022/08/08 06:32:53;;;;;;;1.73;0.60;;;;;;;;;;4925256;28;20440;-72
2022/08/08 06:35:19;;;;;;;1.88;0.70;;;;;;;;;;4923783;29;20047;-71
2022/08/08 06:37:51;;;;;;;4.93;0.60;;;;;;;;;;4929378;28;20039;-76
2022/08/08 06:40:18;;;;;;;3.42;0.60;;;;;;;;;;4940821;28;20126;-72
2022/08/08 06:42:59;;;;;;;1.35;0.60;;;;;;;;;;4923251;29;20090;-73
2022/08/08 06:45:26;;;;;;;1.45;0.63;;;;;;;;;;4920728;29;20138;-72
2022/08/08 06:47:51;;;;;;;1.30;0.57;;;;;;;;;;4924090;28;21460;-72
2022/08/08 06:50:17;;;;;;;0.80;0.50;;;;;;;;;;4934780;28;20042;-72
2022/08/08 06:52:43;;;;;;;0.95;0.70;;;;;;;;;;4937232;28;20043;-73
2022/08/08 06:55:09;;;;;;;1.35;0.70;;;;;;;;;;4924192;28;20404;-72
2022/08/08 06:57:35;;;;;;;4.25;0.75;;;;;;;;;;4938970;28;20031;-72
2022/08/08 07:00:03;;;;;;;2.75;0.60;;;;;;;;;;4939889;28;20055;-72
2022/08/08 07:02:31;;;;;;;1.55;0.77;;;;;;;;;;4924884;28;20047;-72
2022/08/08 07:05:06;;;;;;;0.82;0.70;;;;;;;;;;4928642;28;20101;-71
2022/08/08 07:07:47;;;;;;;1.92;0.63;;;;;;;;;;4937959;28;20036;-72
2022/08/08 07:10:18;;;;;;;2.30;0.60;;;;;;;;;;4923753;28;20040;-72
2022/08/08 07:12:58;;;;;;;2.20;0.60;;;;;;;;;;4915382;29;20158;-72
2022/08/08 07:15:40;;;;;;;1.13;0.57;;;;;;;;;;4924845;28;20047;-72
2022/08/08 07:18:07;;;;;;;0.80;0.50;;;;;;;;;;4927583;28;20132;-72
2022/08/08 07:20:47;;;;;;;3.33;0.82;;;;;;;;;;4938150;28;20031;-72
2022/08/08 07:23:25;;;;;;;1.70;0.55;;;;;;;;;;4935984;28;20123;-71
2022/08/08 07:25:54;;;;;;;1.52;0.40;;;;;;;;;;4923126;28;20067;-72
2022/08/08 07:28:24;;;;;;;3.08;1.33;;;;;;;;;;4927681;28;20566;-71
2022/08/08 07:30:50;;;;;;;4.95;0.68;;;;;;;;;;4943361;28;20031;-71
2022/08/08 07:33:16;;;;;;;1.48;0.43;;;;;;;;;;4928343;28;20051;-73
2022/08/08 07:35:41;;;;;;;2.33;0.88;;;;;;;;;;4936843;28;20126;-73
2022/08/08 07:38:08;;;;;;;2.33;0.70;;;;;;;;;;4934281;28;20043;-72
2022/08/08 07:40:34;;;;;;;1.52;0.52;;;;;;;;;;4929233;28;20049;-72
2022/08/08 07:43:04;;;;;;;1.67;0.50;;;;;;;;;;4945350;28;20027;-73
2022/08/08 07:45:30;;;;;;;1.27;0.60;;;;;;;;;;4945681;28;20023;-72
2022/08/08 07:47:57;;;;;;;1.73;0.47;;;;;;;;;;4930215;28;20098;-71
2022/08/08 07:50:23;;;;;;;1.70;0.68;;;;;;;;;;4928505;28;20038;-72
2022/08/08 07:52:59;;;;;;;2.58;0.50;;;;;;;;;;4932072;28;20042;-73
2022/08/08 07:55:33;;;;;;;1.83;0.50;;;;;;;;;;4943468;28;20055;-73
2022/08/08 07:58:20;;;;;;;1.02;0.60;;;;;;;;;;4924652;28;20097;-73
2022/08/08 08:00:52;;;;;;;0.90;0.50;;;;;;;;;;4923865;29;20043;-73
2022/08/08 08:03:31;;;;;;;1.33;0.60;;;;;;;;;;4946418;28;20039;-73
2022/08/08 08:05:59;;;;;;;1.65;0.52;;;;;;;;;;4941267;28;20067;-73
2022/08/08 08:08:39;;;;;;;2.85;0.88;;;;;;;;;;4947328;28;20039;-76
2022/08/08 08:11:10;;;;;;;1.13;0.45;;;;;;;;;;4946855;28;20043;-72
2022/08/08 08:13:41;;;;;;;3.33;0.63;;;;;;;;;;4947569;28;20039;-73
2022/08/08 08:16:19;;;;;;;1.15;0.60;;;;;;;;;;4944790;28;20046;-73
2022/08/08 08:18:47;;;;;;;1.58;0.98;;;;;;;;;;4954575;28;20054;-73
2022/08/08 08:21:15;;;;;;;1.98;0.47;;;;;;;;;;4945530;28;20039;-72
2022/08/08 08:23:40;;;;;;;4.00;0.90;;;;;;;;;;4946241;28;20102;-71
2022/08/08 08:26:05;;;;;;;1.05;0.50;;;;;;;;;;4944971;28;20044;-72
2022/08/08 08:28:31;;;;;;;2.22;0.60;;;;;;;;;;4942574;28;20555;-72
2022/08/08 08:31:03;;;;;;;4.38;0.60;;;;;;;;;;4943631;28;20038;-72
2022/08/08 08:33:29;;;;;;;0.95;0.60;;;;;;;;;;4944174;28;20047;-72
2022/08/08 08:35:55;;;;;;;2.72;0.52;;;;;;;;;;4925774;28;20135;-72
2022/08/08 08:38:20;;;;;;;2.90;0.80;;;;;;;;;;4936874;28;20043;-71
2022/08/08 08:40:46;;;;;;;1.52;0.57;;;;;;;;;;4936965;28;20677;-71
2022/08/08 08:43:13;;;;;;;1.65;0.80;;;;;;;;;;4930106;28;20031;-72
2022/08/08 08:45:40;;;;;;;3.15;0.70;;;;;;;;;;4928711;28;20024;-71
2022/08/08 08:48:06;;;;;;;1.70;0.80;;;;;;;;;;4943064;28;20538;-73
2022/08/08 08:50:33;;;;;;;4.95;0.80;;;;;;;;;;4943792;28;20046;-71
2022/08/08 08:53:04;;;;;;;2.80;0.50;;;;;;;;;;4938337;28;20051;-71
2022/08/08 08:55:33;;;;;;;1.05;0.50;;;;;;;;;;4927305;28;20066;-72
2022/08/08 08:58:00;;;;;;;1.52;0.60;;;;;;;;;;4929098;28;20035;-71
2022/08/08 09:00:26;;;;;;;2.00;0.77;;;;;;;;;;4925680;29;20550;-71
2022/08/08 09:02:57;;;;;;;3.40;0.65;;;;;;;;;;4924066;28;20114;-71
2022/08/08 09:05:24;;;;;;;4.53;0.82;;;;;;;;;;4936929;28;20035;-74
2022/08/08 09:07:52;;;;;;;1.15;0.85;;;;;;;;;;4935189;28;20052;-71
2022/08/08 09:10:20;;;;;;;2.53;0.70;;;;;;;;;;4926658;28;20043;-71
2022/08/08 09:12:48;;;;;;;2.10;0.57;;;;;;;;;;4923184;29;20817;-71
2022/08/08 09:15:14;;;;;;;2.30;0.50;;;;;;;;;;4946132;28;20067;-73
2022/08/08 09:17:40;;;;;;;3.80;0.80;;;;;;;;;;4932940;28;20047;-73
2022/08/08 09:20:07;;;;;;;2.92;0.85;;;;;;;;;;4957316;28;20059;-71
2022/08/08 09:22:35;;;;;;;2.35;0.60;;;;;;;;;;4928110;28;20035;-71
2022/08/08 09:25:02;;;;;;;1.65;0.77;;;;;;;;;;4926243;28;20475;-72
2022/08/08 09:27:27;;;;;;;0.57;0.57;;;;;;;;;;4927108;29;20380;-72
2022/08/08 09:30:13;;;;;;;2.83;0.70;;;;;;;;;;4939194;28;20035;-72
2022/08/08 09:32:49;;;;;;;0.60;0.40;;;;;;;;;;4930077;28;20094;-72
2022/08/08 09:35:21;;;;;;;1.38;0.60;;;;;;;;;;4927589;28;20066;-73
2022/08/08 09:37:49;;;;;;;0.90;0.70;;;;;;;;;;4935920;28;20063;-72
2022/08/08 09:40:23;;;;;;;3.40;0.50;;;;;;;;;;4943009;28;20030;-72
2022/08/08 09:43:08;;;;;;;4.80;0.85;;;;;;;;;;4924937;29;20031;-73
2022/08/08 09:45:59;;;;;;;5.57;1.00;;;;;;;;;;4923047;29;20611;-72
2022/08/08 09:48:29;;;;;;;2.42;0.70;;;;;;;;;;4924823;29;20147;-72
2022/08/08 09:50:56;;;;;;;1.05;0.40;;;;;;;;;;4922294;28;20242;-73
2022/08/08 09:53:26;;;;;;;2.30;0.70;;;;;;;;;;4924938;28;20035;-72
2022/08/08 09:55:51;;;;;;;7.00;0.65;;;;;;;;;;4929867;28;20047;-71
2022/08/08 09:58:19;;;;;;;2.60;0.65;;;;;;;;;;4939501;28;20443;-72
2022/08/08 10:00:46;;;;;;;2.28;0.77;;;;;;;;;;4924379;29;20477;-71
2022/08/08 10:03:17;;;;;;;4.55;0.98;;;;;;;;;;4925001;28;20492;-71
2022/08/08 10:05:44;;;;;;;1.85;0.70;;;;;;;;;;4939099;28;20035;-71
2022/08/08 10:08:10;;;;;;;2.10;0.68;;;;;;;;;;4944553;28;20151;-73
2022/08/08 10:10:41;;;;;;;1.08;0.50;;;;;;;;;;4939226;28;20040;-71
2022/08/08 10:13:30;;;;;;;2.23;0.67;;;;;;;;;;4925340;28;20146;-71
2022/08/08 10:15:57;;;;;;;2.25;0.63;;;;;;;;;;4921353;29;20042;-71
2022/08/08 10:18:24;;;;;;;2.50;0.50;;;;;;;;;;4937493;28;20209;-72
2022/08/08 10:20:53;;;;;;;5.47;0.80;;;;;;;;;;4942655;28;20047;-72
2022/08/08 10:23:39;;;;;;;1.05;0.52;;;;;;;;;;4941540;28;20039;-71
2022/08/08 10:26:05;;;;;;;4.07;0.80;;;;;;;;;;4934317;28;20043;-72
2022/08/08 10:28:32;;;;;;;3.25;0.82;;;;;;;;;;4939307;28;20098;-72
2022/08/08 10:30:59;;;;;;;1.13;0.95;;;;;;;;;;4926180;29;20154;-72
2022/08/08 10:33:32;;;;;;;1.40;0.70;;;;;;;;;;4924364;29;20384;-71
2022/08/08 10:36:02;;;;;;;2.47;0.70;;;;;;;;;;4941482;28;20118;-70
2022/08/08 10:38:33;;;;;;;1.35;0.57;;;;;;;;;;4933351;28;20524;-71
2022/08/08 10:41:04;;;;;;;1.65;0.68;;;;;;;;;;4923960;28;20131;-71
2022/08/08 10:43:40;;;;;;;2.45;0.77;;;;;;;;;;4931561;28;20090;-71
2022/08/08 10:46:24;;;;;;;0.60;0.60;;;;;;;;;;4945293;28;20031;-71
2022/08/08 10:48:52;;;;;;;2.40;0.57;;;;;;;;;;4953591;28;20026;-71
2022/08/08 10:51:17;;;;;;;1.25;0.70;;;;;;;;;;4943104;28;20039;-71
2022/08/08 10:53:46;;;;;;;5.35;0.70;;;;;;;;;;4943232;28;20470;-71
2022/08/08 10:56:12;;;;;;;0.63;0.50;;;;;;;;;;4944467;28;20031;-71
2022/08/08 10:58:37;;;;;;;4.38;0.60;;;;;;;;;;4942700;28;20050;-70
2022/08/08 11:01:10;;;;;;;2.78;0.60;;;;;;;;;;4941540;28;20808;-72
2022/08/08 11:03:43;;;;;;;2.30;0.70;;;;;;;;;;4943542;28;20402;-71
2022/08/08 11:06:10;;;;;;;5.65;0.70;;;;;;;;;;4944119;28;20130;-73
2022/08/08 11:08:36;;;;;;;0.80;0.50;;;;;;;;;;4943954;28;21199;-73
2022/08/08 11:11:06;;;;;;;1.60;0.70;;;;;;;;;;4943689;28;20046;-77
2022/08/08 11:13:42;;;;;;;1.85;0.60;;;;;;;;;;4944979;28;20031;-74
2022/08/08 11:16:11;;;;;;;0.82;0.52;;;;;;;;;;4941251;28;20046;-73
2022/08/08 11:18:37;;;;;;;0.75;0.60;;;;;;;;;;4948045;28;20043;-73
2022/08/08 11:21:06;;;;;;;1.80;0.50;;;;;;;;;;4943025;28;20043;-69
2022/08/08 11:23:35;;;;;;;2.55;0.63;;;;;;;;;;4940026;28;20066;-71
2022/08/08 11:26:04;;;;;;;1.45;0.47;;;;;;;;;;4942604;28;20070;-71
2022/08/08 11:28:33;;;;;;;2.45;0.60;;;;;;;;;;4943377;28;20618;-72
2022/08/08 11:31:00;;;;;;;2.15;1.00;;;;;;;;;;4942603;28;20035;-71
2022/08/08 11:33:26;;;;;;;4.68;0.80;;;;;;;;;;4946335;28;20496;-70
2022/08/08 11:35:54;;;;;;;1.63;0.50;;;;;;;;;;4943133;28;20043;-71
2022/08/08 11:38:19;;;;;;;2.47;0.70;;;;;;;;;;4944640;28;20440;-71
2022/08/08 11:40:45;;;;;;;3.55;0.80;;;;;;;;;;4937939;28;20044;-70
2022/08/08 11:43:11;;;;;;;3.28;0.60;;;;;;;;;;4928887;28;20040;-71
2022/08/08 11:45:39;;;;;;;3.25;0.70;;;;;;;;;;4922074;29;20047;-69
2022/08/08 11:48:05;;;;;;;0.98;0.63;;;;;;;;;;4939908;28;20631;-71
2022/08/08 11:50:31;;;;;;;0.73;0.70;;;;;;;;;;4935669;28;20042;-72
2022/08/08 11:52:57;;;;;;;4.45;0.70;;;;;;;;;;4931874;28;20038;-73
2022/08/08 11:55:28;;;;;;;1.88;0.77;;;;;;;;;;4941713;28;20523;-72
2022/08/08 11:58:07;;;;;;;1.38;0.60;;;;;;;;;;4922526;29;20024;-72
2022/08/08 12:00:33;;;;;;;1.55;0.57;;;;;;;;;;4923303;29;20060;-71
2022/08/08 12:02:59;;;;;;;0.68;0.52;;;;;;;;;;4940114;28;20047;-72
2022/08/08 12:05:37;;;;;;;2.38;0.75;;;;;;;;;;4934457;28;20483;-71
2022/08/08 12:08:03;;;;;;;4.03;1.05;;;;;;;;;;4935991;28;20496;-71
2022/08/08 12:10:29;;;;;;;0.60;0.50;;;;;;;;;;4948377;28;20149;-71
2022/08/08 12:13:06;;;;;;;1.17;0.70;;;;;;;;;;4946539;28;20633;-71
2022/08/08 12:15:34;;;;;;;2.88;0.60;;;;;;;;;;4948924;28;20043;-70
2022/08/08 12:18:11;;;;;;;0.60;0.40;;;;;;;;;;4946515;28;20038;-70
2022/08/08 12:20:37;;;;;;;1.08;0.50;;;;;;;;;;4947419;28;20046;-71
2022/08/08 12:23:03;;;;;;;2.40;0.60;;;;;;;;;;4940479;28;20107;-70
2022/08/08 12:25:32;;;;;;;1.05;0.60;;;;;;;;;;4926684;29;20393;-70
2022/08/08 12:28:14;;;;;;;0.80;0.60;;;;;;;;;;4926033;28;20520;-70
2022/08/08 12:30:44;;;;;;;1.75;1.33;;;;;;;;;;4946860;28;20421;-72
2022/08/08 12:33:24;;;;;;;2.53;0.70;;;;;;;;;;4945975;28;20035;-71
2022/08/08 12:35:50;;;;;;;1.85;0.70;;;;;;;;;;4946061;28;20095;-70
2022/08/08 12:38:15;;;;;;;2.88;0.60;;;;;;;;;;4946721;28;20130;-71
2022/08/08 12:40:54;;;;;;;1.40;0.50;;;;;;;;;;4946185;28;20150;-71
2022/08/08 12:43:31;;;;;;;1.13;0.65;;;;;;;;;;4947057;28;20400;-70
2022/08/08 12:45:56;;;;;;;2.72;0.65;;;;;;;;;;4947335;28;20051;-70
2022/08/08 12:48:23;;;;;;;1.20;0.50;;;;;;;;;;4945543;28;20077;-74
2022/08/08 12:50:54;;;;;;;1.40;0.60;;;;;;;;;;4945335;28;20043;-75
2022/08/08 12:53:28;;;;;;;0.45;0.43;;;;;;;;;;4945976;28;20130;-72
2022/08/08 12:56:01;;;;;;;2.40;0.63;;;;;;;;;;4942621;28;20130;-71
2022/08/08 12:58:28;;;;;;;1.58;0.50;;;;;;;;;;4940988;28;20057;-71
2022/08/08 13:00:53;;;;;;;1.15;0.50;;;;;;;;;;4938882;28;20038;-70
2022/08/08 13:03:23;;;;;;;0.65;0.57;;;;;;;;;;4943871;28;20036;-71
2022/08/08 13:05:48;;;;;;;4.97;0.65;;;;;;;;;;4942750;28;20046;-71
2022/08/08 13:08:15;;;;;;;2.92;0.80;;;;;;;;;;4944512;28;20035;-68
2022/08/08 13:10:52;;;;;;;2.17;0.70;;;;;;;;;;4944055;28;20151;-69
2022/08/08 13:13:28;;;;;;;1.13;0.50;;;;;;;;;;4945241;28;20047;-70
2022/08/08 13:15:54;;;;;;;1.00;0.50;;;;;;;;;;4942254;29;20438;-69
2022/08/08 13:18:21;;;;;;;1.85;0.70;;;;;;;;;;4946514;28;20051;-70
2022/08/08 13:20:47;;;;;;;6.38;0.60;;;;;;;;;;4946307;28;20043;-70
2022/08/08 13:23:18;;;;;;;1.50;0.60;;;;;;;;;;4942412;28;20051;-69
2022/08/08 13:25:45;;;;;;;1.13;0.45;;;;;;;;;;4947222;28;20125;-71
2022/08/08 13:28:10;;;;;;;1.27;0.70;;;;;;;;;;4943443;28;20158;-71
2022/08/08 13:30:36;;;;;;;1.75;0.77;;;;;;;;;;4946269;28;20114;-70
2022/08/08 13:33:02;;;;;;;0.80;0.60;;;;;;;;;;4945023;28;20408;-71
2022/08/08 13:35:28;;;;;;;4.13;0.70;;;;;;;;;;4942746;28;20073;-70
2022/08/08 13:38:00;;;;;;;0.82;0.40;;;;;;;;;;4944397;28;20094;-70
2022/08/08 13:40:26;;;;;;;3.38;0.73;;;;;;;;;;4942297;28;20260;-70
2022/08/08 13:42:52;;;;;;;1.30;0.60;;;;;;;;;;4941361;28;20531;-70
2022/08/08 13:45:19;;;;;;;1.58;0.63;;;;;;;;;;4942039;28;20448;-72
2022/08/08 13:47:55;;;;;;;2.08;0.90;;;;;;;;;;4943916;28;20039;-70
2022/08/08 13:50:20;;;;;;;0.93;0.50;;;;;;;;;;4940839;28;20468;-71
2022/08/08 13:52:47;;;;;;;0.85;0.60;;;;;;;;;;4945322;28;20086;-70
2022/08/08 13:55:13;;;;;;;1.52;0.55;;;;;;;;;;4943453;28;20109;-70
2022/08/08 13:57:38;;;;;;;2.65;0.60;;;;;;;;;;4945361;29;20491;-71
2022/08/08 14:00:06;;;;;;;2.08;0.75;;;;;;;;;;4939125;28;20431;-70
2022/08/08 14:02:33;;;;;;;1.08;0.68;;;;;;;;;;4943556;28;20637;-70
2022/08/08 14:05:13;;;;;;;1.50;0.60;;;;;;;;;;4942912;28;20050;-71
2022/08/08 14:07:43;;;;;;;0.50;0.50;;;;;;;;;;4942705;28;20039;-70
2022/08/08 14:10:11;;;;;;;0.82;0.50;;;;;;;;;;4941565;28;20035;-70
2022/08/08 14:12:39;;;;;;;0.50;0.50;;;;;;;;;;4945172;28;21375;-70
2022/08/08 14:15:06;;;;;;;1.67;0.60;;;;;;;;;;4938638;28;20537;-72
2022/08/08 14:17:32;;;;;;;2.83;0.70;;;;;;;;;;4942162;28;20038;-68
2022/08/08 14:20:07;;;;;;;1.50;0.50;;;;;;;;;;4941386;28;20039;-71
2022/08/08 14:22:39;;;;;;;1.60;0.80;;;;;;;;;;4945940;28;20514;-70
2022/08/08 14:25:07;;;;;;;0.60;0.50;;;;;;;;;;4938185;28;20035;-69
2022/08/08 14:27:42;;;;;;;0.60;0.60;;;;;;;;;;4944631;28;20046;-70
2022/08/08 14:30:10;;;;;;;2.35;0.75;;;;;;;;;;4938894;28;20047;-70
2022/08/08 14:32:57;;;;;;;0.50;0.50;;;;;;;;;;4942905;28;20089;-69
2022/08/08 14:35:26;;;;;;;1.50;0.82;;;;;;;;;;4943110;28;20037;-69
2022/08/08 14:37:52;;;;;;;0.60;0.60;;;;;;;;;;4945411;28;20554;-71
2022/08/08 14:40:18;;;;;;;1.50;0.50;;;;;;;;;;4941816;28;20047;-70
2022/08/08 14:42:46;;;;;;;3.42;0.85;;;;;;;;;;4944018;28;20037;-70
2022/08/08 14:45:12;;;;;;;1.00;0.60;;;;;;;;;;4946996;28;20050;-70
2022/08/08 14:47:52;;;;;;;1.85;0.60;;;;;;;;;;4945406;28;20046;-71
2022/08/08 14:50:21;;;;;;;1.35;0.70;;;;;;;;;;4938508;28;20043;-71
2022/08/08 14:53:05;;;;;;;2.15;0.60;;;;;;;;;;4948421;28;20951;-70
2022/08/08 14:55:33;;;;;;;0.52;0.52;;;;;;;;;;4939839;28;20504;-70
2022/08/08 14:57:59;;;;;;;1.10;0.60;;;;;;;;;;4942803;28;20384;-71
2022/08/08 15:00:26;;;;;;;2.15;0.60;;;;;;;;;;4944475;28;20114;-70
2022/08/08 15:02:57;;;;;;;2.00;0.60;;;;;;;;;;4941239;28;20489;-71
2022/08/08 15:05:25;;;;;;;2.63;0.60;;;;;;;;;;4944489;28;20047;-70
2022/08/08 15:07:50;;;;;;;0.98;0.70;;;;;;;;;;4944248;28;20031;-71
2022/08/08 15:10:17;;;;;;;1.50;0.80;;;;;;;;;;4944596;28;20070;-70
2022/08/08 15:12:44;;;;;;;1.30;0.60;;;;;;;;;;4941320;28;20551;-69
2022/08/08 15:15:12;;;;;;;0.77;0.57;;;;;;;;;;4941011;28;20609;-71
2022/08/08 15:17:39;;;;;;;1.52;0.55;;;;;;;;;;4944610;28;20047;-69
2022/08/08 15:20:05;;;;;;;2.05;0.70;;;;;;;;;;4942536;28;20066;-70
2022/08/08 15:22:31;;;;;;;3.38;0.90;;;;;;;;;;4941084;28;20078;-69